Time;durP1;ratioP1;P1;durP2;ratioP2;P2;SDS_P1;SDS_P2;PMS_P1;PMS_P2;Temp;Humidity;BMP_temperature;BMP_pressure;BME280_temperature;BME280_humidity;BME280_pressure;Samples;Min_cycle;Max_cycle;Signal;HPM_P1;HPM_P2
2022/05/30 00:00:35;;;;;;;7.43;4.15;;;19.20;99.90;;;;;;5059592;28;20048;-78
2022/05/30 00:03:03;;;;;;;10.93;4.93;;;19.20;99.90;;;;;;5053985;28;20143;-75
2022/05/30 00:05:31;;;;;;;6.95;3.63;;;19.20;99.90;;;;;;5073077;28;20483;-76
2022/05/30 00:07:59;;;;;;;7.45;3.85;;;19.20;99.90;;;;;;5054470;28;20036;-79
2022/05/30 00:10:28;;;;;;;9.95;4.30;;;19.20;99.90;;;;;;5038278;28;20143;-74
2022/05/30 00:12:56;;;;;;;12.60;5.53;;;19.20;99.90;;;;;;5038024;28;20044;-76
2022/05/30 00:15:24;;;;;;;8.80;3.47;;;19.20;99.90;;;;;;5055302;28;20044;-76
2022/05/30 00:17:56;;;;;;;8.32;3.83;;;19.20;99.90;;;;;;5071742;28;20048;-75
2022/05/30 00:20:24;;;;;;;10.40;4.95;;;19.20;99.90;;;;;;5041974;28;20143;-76
2022/05/30 00:22:52;;;;;;;9.93;5.05;;;19.30;99.90;;;;;;5054911;28;20450;-75
2022/05/30 00:25:20;;;;;;;8.95;4.18;;;19.30;99.90;;;;;;5072234;28;20453;-74
2022/05/30 00:27:48;;;;;;;7.25;3.88;;;19.20;99.90;;;;;;5054160;28;20055;-77
2022/05/30 00:30:16;;;;;;;8.10;3.58;;;19.30;99.90;;;;;;5067919;28;20044;-75
2022/05/30 00:32:44;;;;;;;5.00;3.28;;;19.30;99.90;;;;;;5053730;28;20151;-76
2022/05/30 00:35:13;;;;;;;11.55;4.15;;;19.30;99.90;;;;;;5039465;28;20470;-75
2022/05/30 00:37:41;;;;;;;6.30;3.40;;;19.40;99.90;;;;;;5021085;28;20139;-76
2022/05/30 00:40:09;;;;;;;5.45;2.92;;;19.30;99.90;;;;;;5053734;28;20051;-76
2022/05/30 00:42:37;;;;;;;7.38;4.57;;;19.30;99.90;;;;;;5092287;28;20044;-75
2022/05/30 00:45:05;;;;;;;11.70;3.70;;;19.30;99.90;;;;;;5040652;28;20413;-76
2022/05/30 00:47:33;;;;;;;6.68;3.67;;;19.30;99.90;;;;;;5073631;28;20148;-76
2022/05/30 00:50:00;;;;;;;11.68;3.55;;;19.30;99.90;;;;;;5053521;28;20047;-75
2022/05/30 00:52:34;;;;;;;8.18;3.75;;;19.40;99.90;;;;;;5021166;28;20056;-76
2022/05/30 00:55:10;;;;;;;9.88;4.20;;;19.20;99.90;;;;;;5037423;28;20079;-77
2022/05/30 00:57:40;;;;;;;6.95;3.90;;;19.30;99.90;;;;;;5020491;28;20051;-76
2022/05/30 01:00:11;;;;;;;6.68;4.03;;;19.20;99.90;;;;;;5037498;28;20048;-80
2022/05/30 01:02:41;;;;;;;10.48;4.63;;;19.20;99.90;;;;;;5020437;28;20048;-75
2022/05/30 01:08:01;;;;;;;8.77;5.70;;;19.20;99.90;;;;;;5053822;28;20843;-76
2022/05/30 01:10:29;;;;;;;13.60;4.13;;;19.20;99.90;;;;;;5031875;28;20048;-76
2022/05/30 01:12:58;;;;;;;6.40;3.63;;;19.20;99.90;;;;;;5037418;28;20098;-75
2022/05/30 01:15:29;;;;;;;8.32;4.70;;;19.20;99.90;;;;;;5053304;28;20048;-75
2022/05/30 01:18:17;;;;;;;9.10;4.88;;;19.20;99.90;;;;;;5049553;28;20052;-75
2022/05/30 01:21:02;;;;;;;10.80;4.93;;;19.20;99.90;;;;;;5052880;28;20167;-76
2022/05/30 01:23:49;;;;;;;7.03;4.28;;;19.20;99.90;;;;;;5052803;28;20040;-75
2022/05/30 01:26:55;;;;;;;9.95;5.03;;;19.20;99.90;;;;;;5050445;28;20049;-76
2022/05/30 01:29:34;;;;;;;10.68;4.70;;;19.20;99.90;;;;;;5053202;28;20132;-80
2022/05/30 01:32:02;;;;;;;7.40;4.22;;;19.20;99.90;;;;;;5035899;28;20604;-75
2022/05/30 01:34:30;;;;;;;6.75;3.67;;;19.20;99.90;;;;;;5053437;28;20052;-74
2022/05/30 01:36:57;;;;;;;12.15;4.28;;;19.20;99.90;;;;;;5036624;28;20513;-74
2022/05/30 01:39:31;;;;;;;9.93;5.07;;;19.20;99.90;;;;;;5047660;28;20040;-77
2022/05/30 01:41:59;;;;;;;12.18;4.25;;;19.30;99.90;;;;;;5036509;28;20449;-73
2022/05/30 01:44:28;;;;;;;11.25;5.68;;;19.30;99.90;;;;;;5036330;28;20048;-74
2022/05/30 01:46:55;;;;;;;9.90;4.60;;;19.30;99.90;;;;;;5051820;28;20080;-75
2022/05/30 01:49:23;;;;;;;8.50;4.68;;;19.30;99.90;;;;;;5053025;28;20504;-79
2022/05/30 01:51:54;;;;;;;8.35;5.50;;;19.40;99.90;;;;;;5036172;28;20054;-74
2022/05/30 01:54:24;;;;;;;11.63;4.75;;;19.40;99.90;;;;;;5019999;28;20075;-75
2022/05/30 01:57:21;;;;;;;8.40;4.40;;;19.40;99.90;;;;;;5057216;28;20057;-75
2022/05/30 02:00:12;;;;;;;11.00;5.43;;;19.40;99.90;;;;;;5054248;28;20517;-75
2022/05/30 02:02:43;;;;;;;11.55;4.55;;;19.40;99.90;;;;;;5020835;28;20111;-75
2022/05/30 02:05:12;;;;;;;8.88;4.97;;;19.40;99.90;;;;;;5041976;28;20497;-75
2022/05/30 02:07:39;;;;;;;7.03;4.25;;;19.40;99.90;;;;;;5055366;28;20573;-75
2022/05/30 02:10:08;;;;;;;10.55;5.32;;;19.40;99.90;;;;;;5068897;28;20048;-76
2022/05/30 02:12:38;;;;;;;10.00;6.22;;;19.40;99.90;;;;;;5052072;28;20052;-77
2022/05/30 02:15:19;;;;;;;10.98;4.57;;;19.40;99.90;;;;;;5041166;28;20036;-75
2022/05/30 02:17:50;;;;;;;10.43;4.47;;;19.30;99.90;;;;;;5062991;28;20048;-74
2022/05/30 02:20:18;;;;;;;12.10;5.45;;;19.40;99.90;;;;;;5055660;28;20686;-75
2022/05/30 02:22:46;;;;;;;16.45;5.95;;;19.30;99.90;;;;;;5035639;28;20447;-75
2022/05/30 02:25:14;;;;;;;7.22;4.38;;;19.30;99.90;;;;;;5052766;28;20056;-74
2022/05/30 02:27:41;;;;;;;9.18;3.85;;;19.30;99.90;;;;;;5055706;28;20048;-74
2022/05/30 02:30:10;;;;;;;7.78;4.80;;;19.30;99.90;;;;;;5071512;28;20040;-81
2022/05/30 02:32:39;;;;;;;13.13;5.03;;;19.30;99.90;;;;;;5078631;28;20054;-74
2022/05/30 02:37:54;;;;;;;14.82;5.55;;;19.30;99.90;;;;;;5076086;28;20051;-75
2022/05/30 02:40:57;;;;;;;8.25;4.30;;;19.40;99.90;;;;;;5011762;28;20057;-74
2022/05/30 02:43:46;;;;;;;14.30;5.05;;;19.40;99.90;;;;;;5073110;28;20044;-74
2022/05/30 02:46:14;;;;;;;8.30;3.90;;;19.40;99.90;;;;;;5093010;28;20070;-75
2022/05/30 02:48:43;;;;;;;10.40;5.57;;;19.40;99.90;;;;;;5076024;28;20043;-75
2022/05/30 02:51:11;;;;;;;8.75;4.63;;;19.40;99.90;;;;;;5059753;28;20532;-80
2022/05/30 02:53:38;;;;;;;7.32;5.30;;;19.40;99.90;;;;;;5093160;28;20097;-75
2022/05/30 02:56:29;;;;;;;10.23;4.78;;;19.40;99.90;;;;;;5091657;28;20047;-76
2022/05/30 02:59:01;;;;;;;10.85;5.03;;;19.40;99.90;;;;;;5092707;28;20071;-76
2022/05/30 03:01:34;;;;;;;14.82;5.80;;;19.40;99.90;;;;;;5076169;28;20566;-76
2022/05/30 03:04:04;;;;;;;9.88;4.78;;;19.40;99.90;;;;;;5020137;28;20059;-75
2022/05/30 03:06:32;;;;;;;9.05;5.43;;;19.40;99.90;;;;;;5036140;28;20070;-76
2022/05/30 03:09:01;;;;;;;9.68;4.50;;;19.40;99.90;;;;;;5052345;28;20045;-75
2022/05/30 03:11:47;;;;;;;7.65;4.65;;;19.40;99.90;;;;;;5038505;28;20080;-75
2022/05/30 03:14:16;;;;;;;9.85;5.43;;;19.50;99.90;;;;;;5042932;28;20055;-76
2022/05/30 03:16:44;;;;;;;8.10;4.68;;;19.40;99.90;;;;;;5039698;28;20106;-75
2022/05/30 03:19:14;;;;;;;11.80;5.47;;;19.40;99.90;;;;;;5056170;28;20797;-76
2022/05/30 03:21:42;;;;;;;12.93;6.25;;;19.40;99.90;;;;;;5055707;28;20135;-75
2022/05/30 03:24:10;;;;;;;11.73;5.07;;;19.40;99.90;;;;;;5058475;28;20394;-76
2022/05/30 03:26:39;;;;;;;9.93;5.15;;;19.30;99.90;;;;;;5076209;28;20052;-76
2022/05/30 03:29:07;;;;;;;9.07;5.18;;;19.30;99.90;;;;;;5094318;28;20075;-75
2022/05/30 03:31:40;;;;;;;14.23;5.65;;;19.30;99.90;;;;;;5076349;28;20060;-76
2022/05/30 03:34:07;;;;;;;11.20;5.05;;;19.30;99.90;;;;;;5075708;28;20048;-76
2022/05/30 03:36:35;;;;;;;9.40;5.88;;;19.30;99.90;;;;;;5094392;28;20401;-75
2022/05/30 03:39:03;;;;;;;10.93;4.65;;;19.30;99.90;;;;;;5094620;28;20067;-75
2022/05/30 03:41:53;;;;;;;14.15;6.25;;;19.30;99.90;;;;;;5060919;28;20425;-74
2022/05/30 03:44:53;;;;;;;13.93;5.70;;;19.30;99.90;;;;;;5070799;28;20056;-76
2022/05/30 03:47:21;;;;;;;10.38;5.75;;;19.40;99.90;;;;;;5059110;28;20093;-75
2022/05/30 03:49:48;;;;;;;15.07;5.38;;;19.40;99.90;;;;;;5076212;28;20071;-75
2022/05/30 03:52:17;;;;;;;11.88;5.28;;;19.40;99.90;;;;;;5075729;28;20076;-77
2022/05/30 03:54:44;;;;;;;12.02;5.60;;;19.40;99.90;;;;;;5059297;28;20147;-76
2022/05/30 03:57:12;;;;;;;9.75;6.25;;;19.40;99.90;;;;;;5059312;28;20133;-77
2022/05/30 03:59:40;;;;;;;13.73;5.57;;;19.50;99.90;;;;;;5075836;28;20488;-76
2022/05/30 04:02:08;;;;;;;10.50;6.22;;;19.40;99.90;;;;;;5058859;28;20139;-76
2022/05/30 04:04:35;;;;;;;14.25;6.60;;;19.40;99.90;;;;;;5058675;28;20052;-76
2022/05/30 04:07:03;;;;;;;15.10;6.95;;;19.50;99.90;;;;;;5075796;28;20062;-75
2022/05/30 04:09:41;;;;;;;9.90;6.40;;;19.50;99.90;;;;;;5044112;28;20044;-75
2022/05/30 04:12:31;;;;;;;12.27;6.38;;;19.60;99.90;;;;;;5092766;28;20067;-75
2022/05/30 04:15:28;;;;;;;20.48;6.90;;;19.70;99.90;;;;;;5068283;28;20071;-75
2022/05/30 04:17:56;;;;;;;13.20;5.97;;;19.70;99.90;;;;;;5021949;28;20049;-75
2022/05/30 04:20:24;;;;;;;15.60;7.10;;;19.70;99.90;;;;;;5038776;28;20091;-75
2022/05/30 04:22:52;;;;;;;12.93;6.15;;;19.80;99.90;;;;;;5039189;28;20132;-75
2022/05/30 04:25:23;;;;;;;9.48;5.32;;;19.90;99.90;;;;;;5055735;28;20052;-76
2022/05/30 04:27:50;;;;;;;8.25;5.90;;;20.00;99.90;;;;;;5038523;28;20095;-76
2022/05/30 04:30:18;;;;;;;11.77;6.55;;;20.10;99.90;;;;;;5055283;28;20044;-76
2022/05/30 04:32:52;;;;;;;16.67;6.03;;;20.10;99.90;;;;;;5023323;28;20049;-75
2022/05/30 04:35:19;;;;;;;10.00;5.75;;;20.10;99.90;;;;;;5054826;28;20055;-75
2022/05/30 04:37:48;;;;;;;12.35;7.13;;;20.10;99.90;;;;;;5072879;28;20060;-76
2022/05/30 04:40:34;;;;;;;16.02;6.28;;;20.20;99.90;;;;;;5055146;28;20064;-75
2022/05/30 04:43:21;;;;;;;10.35;5.60;;;20.30;99.90;;;;;;5055538;28;20048;-76
2022/05/30 04:46:19;;;;;;;12.57;5.75;;;20.30;99.90;;;;;;5041460;28;20182;-75
2022/05/30 04:48:50;;;;;;;9.70;4.45;;;20.30;99.90;;;;;;5038422;28;20060;-77
2022/05/30 04:51:17;;;;;;;6.85;4.75;;;20.40;99.90;;;;;;5038152;28;20044;-76
2022/05/30 04:53:45;;;;;;;10.68;5.45;;;20.30;99.90;;;;;;5038846;28;20090;-75
2022/05/30 04:56:33;;;;;;;12.77;6.18;;;20.30;99.90;;;;;;5040610;28;20494;-75
2022/05/30 04:59:06;;;;;;;17.27;6.15;;;20.50;99.90;;;;;;5038639;28;20044;-75
2022/05/30 05:01:36;;;;;;;12.82;5.50;;;20.60;99.90;;;;;;5038428;28;20089;-76
2022/05/30 05:04:08;;;;;;;9.43;6.20;;;20.60;99.90;;;;;;5037740;28;20048;-76
2022/05/30 05:06:35;;;;;;;11.27;6.38;;;20.70;99.90;;;;;;5038067;28;20053;-76
2022/05/30 05:09:27;;;;;;;10.02;5.60;;;20.70;99.90;;;;;;5054973;28;20052;-75
2022/05/30 05:12:14;;;;;;;9.07;5.18;;;20.70;99.90;;;;;;5069313;28;20045;-75
2022/05/30 05:14:54;;;;;;;11.65;5.82;;;20.70;99.90;;;;;;5054889;28;20612;-76
2022/05/30 05:17:40;;;;;;;7.90;5.43;;;20.70;99.90;;;;;;5070907;28;20044;-76
2022/05/30 05:20:08;;;;;;;15.10;5.38;;;20.80;99.90;;;;;;5054126;28;20679;-75
2022/05/30 05:22:36;;;;;;;9.63;5.63;;;20.90;99.90;;;;;;5037502;28;20059;-78
2022/05/30 05:25:04;;;;;;;8.18;5.75;;;21.00;99.90;;;;;;5054485;28;20395;-77
2022/05/30 05:27:55;;;;;;;10.77;5.45;;;21.10;99.90;;;;;;5048294;28;20114;-75
2022/05/30 05:30:22;;;;;;;12.27;5.40;;;21.10;99.90;;;;;;5070584;28;20047;-76
2022/05/30 05:32:51;;;;;;;8.25;5.65;;;21.20;99.90;;;;;;5020697;28;20044;-75
2022/05/30 05:35:18;;;;;;;7.38;5.43;;;21.20;99.90;;;;;;5053937;28;20078;-75
2022/05/30 05:37:46;;;;;;;6.80;4.50;;;21.40;99.90;;;;;;5070770;28;20130;-76
2022/05/30 05:40:43;;;;;;;8.68;5.53;;;21.50;99.90;;;;;;5046666;28;20049;-76
2022/05/30 05:43:13;;;;;;;10.75;5.85;;;21.70;99.90;;;;;;5037389;28;20048;-76
2022/05/30 05:45:43;;;;;;;11.88;5.85;;;21.90;99.90;;;;;;5037033;28;20083;-77
2022/05/30 05:48:11;;;;;;;8.75;4.57;;;22.00;99.90;;;;;;5053145;28;20099;-76
2022/05/30 05:50:40;;;;;;;8.77;5.35;;;22.20;99.90;;;;;;5053572;28;20049;-76
2022/05/30 05:53:10;;;;;;;8.63;5.00;;;22.10;99.90;;;;;;5037409;28;20048;-76
2022/05/30 05:55:39;;;;;;;10.93;5.80;;;22.10;99.90;;;;;;5037551;28;20052;-76
2022/05/30 05:58:07;;;;;;;10.48;6.20;;;22.20;99.90;;;;;;5052589;28;20093;-77
2022/05/30 06:00:35;;;;;;;8.82;4.47;;;22.20;99.90;;;;;;5070107;28;20040;-77
2022/05/30 06:03:03;;;;;;;8.30;4.82;;;22.30;99.90;;;;;;5053754;28;20045;-77
2022/05/30 06:05:50;;;;;;;9.13;4.97;;;22.40;99.90;;;;;;5056227;28;20059;-77
2022/05/30 06:08:41;;;;;;;7.95;5.30;;;22.50;99.90;;;;;;5086335;28;20081;-76
2022/05/30 06:11:21;;;;;;;9.32;5.60;;;22.40;99.90;;;;;;5073711;28;20039;-76
2022/05/30 06:13:55;;;;;;;7.20;4.50;;;22.50;99.90;;;;;;5056382;28;20048;-78
2022/05/30 06:16:30;;;;;;;7.18;4.55;;;22.50;99.90;;;;;;5073482;28;20389;-77
2022/05/30 06:19:01;;;;;;;9.75;5.03;;;22.60;99.90;;;;;;5039662;28;20440;-76
2022/05/30 06:21:31;;;;;;;11.80;6.15;;;22.80;99.90;;;;;;5056698;28;20172;-76
2022/05/30 06:24:00;;;;;;;6.18;4.55;;;23.00;99.90;;;;;;5056529;28;20056;-76
2022/05/30 06:26:46;;;;;;;14.32;6.43;;;23.10;99.90;;;;;;5091064;28;20044;-77
2022/05/30 06:29:25;;;;;;;9.65;4.70;;;23.10;99.90;;;;;;5074854;28;20137;-77
2022/05/30 06:31:53;;;;;;;7.68;4.05;;;23.40;99.90;;;;;;5072842;28;20071;-78
2022/05/30 06:34:21;;;;;;;9.40;4.75;;;23.50;99.90;;;;;;5044110;28;20828;-76
2022/05/30 06:36:49;;;;;;;9.15;4.05;;;23.40;99.90;;;;;;5016910;28;20754;-76
2022/05/30 06:39:17;;;;;;;8.13;4.07;;;23.20;99.90;;;;;;5016661;28;20063;-78
2022/05/30 06:42:13;;;;;;;6.10;4.97;;;23.10;99.90;;;;;;5049889;28;20171;-78
2022/05/30 06:44:59;;;;;;;8.07;4.90;;;23.00;99.90;;;;;;5049903;28;20060;-76
2022/05/30 06:47:39;;;;;;;11.82;5.82;;;22.80;99.90;;;;;;5049269;28;20067;-77
2022/05/30 06:50:29;;;;;;;10.88;6.60;;;22.60;99.90;;;;;;5044203;28;20057;-77
2022/05/30 06:52:57;;;;;;;7.93;5.22;;;22.60;99.90;;;;;;5032996;28;20056;-77
2022/05/30 06:55:25;;;;;;;7.97;4.97;;;22.80;99.90;;;;;;5049555;28;20057;-77
2022/05/30 07:00:40;;;;;;;8.10;4.88;;;23.10;99.90;;;;;;5022835;28;20057;-77
2022/05/30 07:03:26;;;;;;;8.73;5.05;;;23.20;99.90;;;;;;5015682;28;20085;-78
2022/05/30 07:06:18;;;;;;;14.02;5.15;;;23.50;99.90;;;;;;5015829;28;20103;-76
2022/05/30 07:09:18;;;;;;;8.88;4.57;;;23.70;99.90;;;;;;5005896;28;20810;-77
2022/05/30 07:11:54;;;;;;;17.50;5.68;;;23.80;99.90;;;;;;5045413;28;20077;-77
2022/05/30 07:14:24;;;;;;;11.45;4.43;;;23.90;99.90;;;;;;5012672;28;20100;-76
2022/05/30 07:16:52;;;;;;;13.20;5.75;;;23.90;99.90;;;;;;5029537;28;20045;-76
2022/05/30 07:19:20;;;;;;;7.00;4.28;;;23.90;99.90;;;;;;5028575;28;20088;-76
2022/05/30 07:21:54;;;;;;;9.02;4.65;;;23.90;99.90;;;;;;5012493;28;20511;-78
2022/05/30 07:24:57;;;;;;;7.85;4.25;;;23.90;99.90;;;;;;4988126;28;20054;-77
2022/05/30 07:27:50;;;;;;;9.68;4.30;;;23.90;99.90;;;;;;5027243;28;20049;-77
2022/05/30 07:30:36;;;;;;;9.52;3.72;;;24.10;99.90;;;;;;5030273;28;20050;-76
2022/05/30 07:33:34;;;;;;;10.02;4.57;;;24.10;99.90;;;;;;5011595;28;20184;-77
2022/05/30 07:36:24;;;;;;;7.80;4.03;;;24.20;99.90;;;;;;5069891;28;20223;-76
2022/05/30 07:39:05;;;;;;;21.65;4.53;;;24.30;99.90;;;;;;5035444;28;20051;-77
2022/05/30 07:41:37;;;;;;;10.95;4.20;;;24.50;99.90;;;;;;5070117;28;20040;-76
2022/05/30 07:44:12;;;;;;;9.27;4.22;;;24.60;99.90;;;;;;5035422;28;20402;-78
2022/05/30 07:46:54;;;;;;;11.88;5.03;;;24.60;99.90;;;;;;5035829;28;20044;-78
2022/05/30 07:49:44;;;;;;;10.95;5.45;;;24.70;99.90;;;;;;5043246;28;20047;-77
2022/05/30 07:52:23;;;;;;;9.70;4.13;;;24.60;99.90;;;;;;5037134;28;20067;-79
2022/05/30 07:55:14;;;;;;;6.90;3.47;;;24.60;99.90;;;;;;5039036;28;20516;-78
2022/05/30 07:57:51;;;;;;;9.27;4.30;;;24.60;99.90;;;;;;5035732;28;20094;-78
2022/05/30 08:00:25;;;;;;;6.18;4.10;;;24.80;99.90;;;;;;5035570;28;20410;-77
2022/05/30 08:03:00;;;;;;;10.00;4.28;;;24.70;99.90;;;;;;5052133;28;20115;-77
2022/05/30 08:05:31;;;;;;;8.80;4.15;;;24.90;99.90;;;;;;5068858;28;20401;-77
2022/05/30 08:08:37;;;;;;;11.70;5.53;;;25.00;99.90;;;;;;4987771;28;20043;-77
2022/05/30 08:11:05;;;;;;;11.07;4.40;;;25.00;99.90;;;;;;4974424;28;20061;-76
2022/05/30 08:13:41;;;;;;;7.70;5.00;;;25.10;99.90;;;;;;5021703;28;20052;-77
2022/05/30 08:16:15;;;;;;;8.05;4.38;;;25.00;99.90;;;;;;5055555;28;20044;-77
2022/05/30 08:18:54;;;;;;;8.80;4.85;;;24.80;99.90;;;;;;5039273;28;20064;-78
2022/05/30 08:21:23;;;;;;;7.63;4.20;;;24.90;99.90;;;;;;5038974;28;20414;-77
2022/05/30 08:23:51;;;;;;;8.52;4.45;;;25.00;99.90;;;;;;5039330;28;20041;-77
2022/05/30 08:26:19;;;;;;;8.55;4.70;;;25.10;99.90;;;;;;5038890;28;20049;-78
2022/05/30 08:29:07;;;;;;;6.97;4.30;;;25.10;99.90;;;;;;5024947;28;20056;-78
2022/05/30 08:31:36;;;;;;;8.70;4.95;;;25.30;99.90;;;;;;5038508;28;20044;-77
2022/05/30 08:34:23;;;;;;;6.82;3.60;;;25.30;99.90;;;;;;5054997;28;20048;-78
2022/05/30 08:37:00;;;;;;;8.60;3.97;;;25.40;99.90;;;;;;5038686;28;20060;-76
2022/05/30 08:42:14;;;;;;;11.18;6.50;;;25.50;99.90;;;;;;5041062;28;20056;-77
2022/05/30 08:45:16;;;;;;;9.18;4.35;;;25.50;99.90;;;;;;5067616;28;20514;-77
2022/05/30 08:48:11;;;;;;;6.40;3.88;;;25.30;99.90;;;;;;5038282;28;20058;-77
2022/05/30 08:51:14;;;;;;;7.60;4.25;;;25.40;99.90;;;;;;5055500;28;20045;-77
2022/05/30 08:53:54;;;;;;;10.07;4.93;;;25.40;99.90;;;;;;5038336;28;20047;-76
2022/05/30 08:56:29;;;;;;;7.53;4.03;;;25.60;99.90;;;;;;5070882;28;20051;-77
2022/05/30 08:59:24;;;;;;;10.18;4.95;;;25.60;99.90;;;;;;5040939;28;20044;-78
2022/05/30 09:02:23;;;;;;;11.68;4.00;;;25.60;99.90;;;;;;5071313;28;20120;-78
2022/05/30 09:05:11;;;;;;;10.95;3.95;;;25.70;99.90;;;;;;5071667;28;20044;-77
2022/05/30 09:08:01;;;;;;;10.05;4.78;;;25.40;99.90;;;;;;5023870;28;20068;-77
2022/05/30 09:10:51;;;;;;;12.52;4.82;;;25.40;99.90;;;;;;5038176;28;20049;-77
2022/05/30 09:13:29;;;;;;;9.65;4.82;;;25.40;99.90;;;;;;5054612;28;20052;-77
2022/05/30 09:16:35;;;;;;;12.30;4.18;;;25.50;99.90;;;;;;4999119;28;20186;-77
2022/05/30 09:19:11;;;;;;;8.38;4.30;;;25.70;99.90;;;;;;5071288;28;20041;-76
2022/05/30 09:21:40;;;;;;;8.57;4.30;;;25.70;99.90;;;;;;5038005;28;20566;-77
2022/05/30 09:24:12;;;;;;;11.63;4.85;;;25.70;99.90;;;;;;5054056;28;20126;-77
2022/05/30 09:26:40;;;;;;;7.20;4.00;;;25.80;99.90;;;;;;5072486;28;20126;-77
2022/05/30 09:29:21;;;;;;;14.02;4.97;;;25.90;99.90;;;;;;5054511;28;20049;-80
2022/05/30 09:32:28;;;;;;;7.57;4.20;;;25.90;99.90;;;;;;5040508;28;20084;-77
2022/05/30 09:35:20;;;;;;;;;;;25.90;99.90;;;;;;5054464;28;20481;-77
2022/05/30 09:38:16;;;;;;;11.07;4.10;;;26.00;99.90;;;;;;5071817;28;20634;-78
2022/05/30 09:41:06;;;;;;;7.82;3.95;;;26.00;99.90;;;;;;5053437;28;20048;-77
2022/05/30 09:43:58;;;;;;;13.60;4.97;;;26.00;99.90;;;;;;5022535;28;20059;-77
2022/05/30 09:46:43;;;;;;;8.40;4.07;;;26.00;99.90;;;;;;5038208;28;20040;-77
2022/05/30 09:49:22;;;;;;;8.60;4.20;;;26.10;99.90;;;;;;5037124;28;20057;-77
2022/05/30 09:52:04;;;;;;;8.80;3.92;;;26.20;99.90;;;;;;5037451;28;20045;-77
2022/05/30 09:54:35;;;;;;;14.20;4.53;;;26.20;99.90;;;;;;5037115;28;20400;-78
2022/05/30 09:57:12;;;;;;;9.95;3.53;;;26.40;99.90;;;;;;5038097;28;20162;-76
2022/05/30 10:00:10;;;;;;;11.15;3.90;;;26.30;99.90;;;;;;5071665;28;20048;-78
2022/05/30 10:02:45;;;;;;;6.63;3.45;;;26.30;99.90;;;;;;5038137;28;20402;-77
2022/05/30 10:05:21;;;;;;;7.75;5.05;;;26.00;99.90;;;;;;5037156;28;20044;-78
2022/05/30 10:07:58;;;;;;;7.35;4.05;;;26.00;99.80;;;;;;5053836;28;20131;-77
2022/05/30 10:10:51;;;;;;;8.10;4.38;;;26.00;99.10;;;;;;5037381;28;20052;-76
2022/05/30 10:13:42;;;;;;;7.05;3.38;;;26.00;99.40;;;;;;5037176;28;20048;-77
2022/05/30 10:16:34;;;;;;;9.52;3.92;;;26.20;98.80;;;;;;5071273;28;20044;-78
2022/05/30 10:19:06;;;;;;;13.23;3.97;;;26.20;98.90;;;;;;5036982;28;20089;-79
2022/05/30 10:28:49;;;;;;;10.05;3.97;;;26.30;98.20;;;;;;5039398;28;20584;-78
2022/05/30 10:31:52;;;;;;;11.57;4.10;;;26.30;98.30;;;;;;5053384;28;20044;-77
2022/05/30 10:34:32;;;;;;;7.63;3.35;;;26.40;98.20;;;;;;5008132;28;20058;-77
2022/05/30 10:37:18;;;;;;;9.82;3.45;;;26.50;97.70;;;;;;5013906;28;20049;-77
2022/05/30 10:40:00;;;;;;;8.90;3.40;;;26.50;98.00;;;;;;4997142;28;20048;-77
2022/05/30 10:42:50;;;;;;;13.32;4.57;;;26.50;98.40;;;;;;5013070;28;20671;-77
2022/05/30 10:45:28;;;;;;;9.27;4.13;;;26.60;98.30;;;;;;5013483;28;20077;-77
2022/05/30 10:47:57;;;;;;;6.38;3.47;;;26.40;98.00;;;;;;5029670;28;20041;-78
2022/05/30 10:50:55;;;;;;;12.60;4.32;;;26.40;98.30;;;;;;5013405;28;20053;-78
2022/05/30 10:53:48;;;;;;;8.88;3.75;;;26.40;98.00;;;;;;5012492;28;20148;-78
2022/05/30 10:56:40;;;;;;;11.90;3.47;;;26.40;98.20;;;;;;5030716;28;20049;-77
2022/05/30 10:59:22;;;;;;;10.85;4.15;;;26.50;98.60;;;;;;5013591;28;20057;-78
2022/05/30 11:02:00;;;;;;;8.80;3.40;;;26.30;98.20;;;;;;5012245;28;20515;-77
2022/05/30 11:04:43;;;;;;;7.60;4.00;;;26.30;98.80;;;;;;5013376;28;20045;-77
2022/05/30 11:07:38;;;;;;;8.68;4.53;;;26.30;98.80;;;;;;5013092;28;20041;-78
2022/05/30 11:10:28;;;;;;;8.20;3.22;;;26.30;98.80;;;;;;5012643;28;20575;-78
2022/05/30 11:13:30;;;;;;;8.23;3.67;;;26.30;98.80;;;;;;5013285;28;20562;-77
2022/05/30 11:16:52;;;;;;;9.50;4.20;;;26.40;99.10;;;;;;5029024;28;20587;-77
2022/05/30 11:19:59;;;;;;;13.00;4.25;;;26.40;99.00;;;;;;5031503;28;20053;-79
2022/05/30 11:22:53;;;;;;;8.50;4.28;;;26.60;99.50;;;;;;5045150;28;20060;-77
2022/05/30 11:25:40;;;;;;;12.75;3.78;;;26.50;99.40;;;;;;5032345;28;20052;-76
2022/05/30 11:28:08;;;;;;;;;;;26.50;99.90;;;;;;5032562;28;20071;-77
2022/05/30 11:30:53;;;;;;;8.90;4.35;;;26.40;99.90;;;;;;5047908;28;19931;-78
2022/05/30 11:33:53;;;;;;;7.05;3.88;;;26.30;99.90;;;;;;5015740;28;20552;-78
2022/05/30 11:36:37;;;;;;;8.82;3.80;;;26.20;99.90;;;;;;5038694;28;20063;-77
2022/05/30 11:39:38;;;;;;;9.45;4.07;;;26.20;99.90;;;;;;5071312;28;20139;-78
2022/05/30 11:42:18;;;;;;;13.45;4.93;;;26.10;99.90;;;;;;5071546;28;20074;-80
2022/05/30 11:44:49;;;;;;;10.43;3.80;;;26.10;99.90;;;;;;5055069;28;20043;-79
2022/05/30 11:47:53;;;;;;;9.45;4.47;;;26.10;99.90;;;;;;5093510;28;20072;-79
2022/05/30 11:50:28;;;;;;;17.13;4.55;;;26.00;99.90;;;;;;5011458;28;20392;-76
2022/05/30 11:53:32;;;;;;;6.70;3.80;;;25.90;99.90;;;;;;5048132;28;20046;-79
2022/05/30 11:56:17;;;;;;;12.75;4.60;;;25.90;99.90;;;;;;5093606;28;20047;-77
2022/05/30 11:59:06;;;;;;;11.85;4.57;;;25.80;99.90;;;;;;5059114;28;20036;-80
2022/05/30 12:01:37;;;;;;;11.75;4.28;;;26.00;99.90;;;;;;5065675;28;20097;-78
2022/05/30 12:04:20;;;;;;;13.98;4.10;;;26.00;99.90;;;;;;5074812;28;20048;-78
2022/05/30 12:07:10;;;;;;;11.38;3.65;;;26.10;99.90;;;;;;5075096;28;20048;-77
2022/05/30 12:09:46;;;;;;;14.35;4.43;;;26.20;99.90;;;;;;5075026;28;20051;-77
2022/05/30 12:12:22;;;;;;;14.70;4.35;;;26.10;99.90;;;;;;5075054;28;20075;-78
2022/05/30 12:15:26;;;;;;;14.30;4.22;;;26.10;99.90;;;;;;5075743;28;20047;-76
2022/05/30 12:24:21;;;;;;;11.65;4.72;;;25.90;99.90;;;;;;5075407;28;20067;-76
2022/05/30 12:26:53;;;;;;;8.88;4.30;;;25.90;99.90;;;;;;5075414;28;20047;-74
2022/05/30 12:29:32;;;;;;;10.90;5.10;;;25.90;99.90;;;;;;5075752;28;20476;-74
2022/05/30 12:32:18;;;;;;;10.55;4.90;;;26.00;99.90;;;;;;5058816;28;20074;-75
2022/05/30 12:35:00;;;;;;;12.40;4.38;;;26.00;99.90;;;;;;5093159;28;20044;-76
2022/05/30 12:37:44;;;;;;;8.55;4.53;;;26.10;99.90;;;;;;5075679;28;20055;-75
2022/05/30 12:40:27;;;;;;;8.88;5.40;;;26.20;99.90;;;;;;5075531;28;20044;-75
2022/05/30 12:43:16;;;;;;;12.73;5.90;;;26.20;99.90;;;;;;5058074;28;20093;-77
2022/05/30 12:45:51;;;;;;;8.38;4.53;;;26.00;99.90;;;;;;5057343;28;20052;-76
2022/05/30 12:48:25;;;;;;;13.90;4.75;;;26.00;99.90;;;;;;5074956;28;20071;-76
2022/05/30 12:50:52;;;;;;;9.05;4.72;;;25.90;99.90;;;;;;5075045;28;20109;-76
2022/05/30 12:53:24;;;;;;;11.75;5.53;;;25.90;99.90;;;;;;5058464;28;20394;-76
2022/05/30 12:55:54;;;;;;;9.73;3.75;;;25.90;99.90;;;;;;5074171;28;20051;-77
2022/05/30 12:58:34;;;;;;;14.43;5.93;;;25.90;99.90;;;;;;5074854;28;20128;-76
2022/05/30 13:01:20;;;;;;;12.57;4.82;;;26.00;99.90;;;;;;5057816;28;20048;-76
2022/05/30 13:04:07;;;;;;;11.02;4.68;;;26.00;99.90;;;;;;5057928;28;20115;-76
2022/05/30 13:06:58;;;;;;;8.70;4.13;;;25.90;99.90;;;;;;5058485;28;20134;-76
2022/05/30 13:09:33;;;;;;;19.55;5.43;;;25.90;99.90;;;;;;5074592;28;20044;-76
2022/05/30 13:12:10;;;;;;;12.93;4.45;;;26.00;99.90;;;;;;5047422;28;20056;-76
2022/05/30 13:14:50;;;;;;;16.90;6.40;;;25.90;99.90;;;;;;5072246;28;20082;-77
2022/05/30 13:17:24;;;;;;;16.23;5.95;;;26.00;99.90;;;;;;5081816;28;20063;-77
2022/05/30 13:19:56;;;;;;;16.17;4.30;;;26.00;99.90;;;;;;5072621;28;20058;-76
2022/05/30 13:22:36;;;;;;;7.93;4.13;;;26.10;99.90;;;;;;5050194;28;20052;-78
2022/05/30 13:25:06;;;;;;;15.65;4.50;;;26.20;99.90;;;;;;5066000;28;20138;-75
2022/05/30 13:27:35;;;;;;;11.52;4.70;;;26.20;99.90;;;;;;5061764;28;20093;-78
2022/05/30 13:30:08;;;;;;;17.02;5.13;;;26.20;99.90;;;;;;5077293;28;20119;-77
2022/05/30 13:32:38;;;;;;;15.20;5.07;;;26.20;99.90;;;;;;5081213;28;20052;-76
2022/05/30 13:35:12;;;;;;;15.13;4.45;;;26.20;99.90;;;;;;5030050;28;20131;-77
2022/05/30 13:37:48;;;;;;;14.82;4.72;;;26.00;99.90;;;;;;5030068;28;20053;-77
2022/05/30 13:40:24;;;;;;;10.23;4.28;;;26.10;99.90;;;;;;5014428;28;20451;-76
2022/05/30 13:42:57;;;;;;;12.05;4.13;;;26.10;99.90;;;;;;5050683;28;20098;-75
2022/05/30 13:45:40;;;;;;;15.70;5.20;;;26.10;99.90;;;;;;5021814;28;20060;-75
2022/05/30 13:48:11;;;;;;;;;;;26.30;99.90;;;;;;5038143;28;20048;-76
2022/05/30 13:51:11;;;;;;;8.63;4.03;;;26.20;99.90;;;;;;5070776;28;19932;-77
2022/05/30 13:53:46;;;;;;;11.73;3.85;;;26.20;99.90;;;;;;5071646;28;20513;-76
2022/05/30 13:56:18;;;;;;;11.00;4.50;;;26.20;99.90;;;;;;5053844;28;20135;-77
2022/05/30 13:58:58;;;;;;;12.38;4.10;;;26.30;99.90;;;;;;5053518;28;20048;-76
2022/05/30 14:01:32;;;;;;;10.20;4.35;;;26.20;99.90;;;;;;5031749;28;20045;-77